createdAt,value
2017-05-30T00:00:18.528Z,0
2017-05-30T00:01:19.143Z,0
2017-05-30T00:02:19.761Z,0
2017-05-30T00:03:20.371Z,0
2017-05-30T00:04:20.984Z,0
2017-05-30T00:05:21.605Z,0
2017-05-30T00:06:22.218Z,0
2017-05-30T00:07:22.833Z,0
2017-05-30T00:08:23.449Z,0
2017-05-30T00:09:24.063Z,0
2017-05-30T00:10:24.680Z,0
2017-05-30T00:11:25.302Z,0
2017-05-30T00:12:25.908Z,0
2017-05-30T00:13:26.528Z,0
2017-05-30T00:14:27.145Z,0
2017-05-30T00:15:27.757Z,0
2017-05-30T00:16:28.372Z,0
2017-05-30T00:17:28.992Z,0
2017-05-30T00:18:29.611Z,0
2017-05-30T00:19:30.227Z,0
2017-05-30T00:20:30.845Z,0
2017-05-30T00:21:31.457Z,0
2017-05-30T00:22:32.076Z,0
2017-05-30T00:23:32.690Z,0
2017-05-30T00:24:33.305Z,0
2017-05-30T00:25:33.920Z,0
2017-05-30T00:26:34.534Z,0
2017-05-30T00:27:35.148Z,0
2017-05-30T00:28:35.767Z,0
2017-05-30T00:29:36.415Z,0
2017-05-30T00:30:37.079Z,0
2017-05-30T00:31:37.696Z,0
2017-05-30T00:32:38.315Z,0
2017-05-30T00:33:38.932Z,0
2017-05-30T00:34:39.542Z,0
2017-05-30T00:35:40.158Z,0
2017-05-30T00:36:40.803Z,0
2017-05-30T00:37:41.422Z,0
2017-05-30T00:38:42.033Z,0
2017-05-30T00:39:42.653Z,0
2017-05-30T00:40:43.266Z,0
2017-05-30T00:41:43.883Z,0
2017-05-30T00:42:44.497Z,0
2017-05-30T00:43:45.110Z,0
2017-05-30T00:44:45.726Z,0
2017-05-30T00:45:46.390Z,0
2017-05-30T00:46:47.003Z,0
2017-05-30T00:47:47.655Z,0
2017-05-30T00:48:48.308Z,0
2017-05-30T00:49:48.960Z,0
2017-05-30T00:50:49.621Z,0
2017-05-30T00:51:50.243Z,0
2017-05-30T00:52:50.855Z,0
2017-05-30T00:53:51.470Z,0
2017-05-30T00:54:52.090Z,0
2017-05-30T00:55:52.788Z,0
2017-05-30T00:56:53.402Z,0
2017-05-30T00:57:54.047Z,0
2017-05-30T00:58:54.661Z,0
2017-05-30T00:59:55.281Z,0
2017-05-30T01:00:55.894Z,0
2017-05-30T01:01:56.509Z,0
2017-05-30T01:02:57.128Z,0
2017-05-30T01:03:57.741Z,0
2017-05-30T01:04:58.355Z,0
2017-05-30T01:05:59.021Z,0
2017-05-30T01:06:59.641Z,0
2017-05-30T01:08:00.289Z,0
2017-05-30T01:09:00.903Z,0
2017-05-30T01:10:01.520Z,0
2017-05-30T01:11:02.185Z,0
2017-05-30T01:12:02.802Z,0
2017-05-30T01:13:03.416Z,0
2017-05-30T01:14:04.031Z,0
2017-05-30T01:15:04.678Z,0
2017-05-30T01:16:05.343Z,0
2017-05-30T01:17:05.962Z,0
2017-05-30T01:18:06.587Z,0
2017-05-30T01:19:07.204Z,0
2017-05-30T01:20:07.817Z,0
2017-05-30T01:21:08.464Z,0
2017-05-30T01:22:09.078Z,0
2017-05-30T01:23:09.699Z,0
2017-05-30T01:24:10.314Z,0
2017-05-30T01:25:10.970Z,0
2017-05-30T01:26:11.664Z,0
2017-05-30T01:27:12.280Z,0
2017-05-30T01:28:12.927Z,0
2017-05-30T01:29:13.549Z,0
2017-05-30T01:30:14.162Z,0
2017-05-30T01:31:14.780Z,0
2017-05-30T01:32:15.397Z,0
2017-05-30T01:33:16.007Z,0
2017-05-30T01:34:16.621Z,0
2017-05-30T01:35:17.240Z,0
2017-05-30T01:36:17.903Z,0
2017-05-30T01:37:18.521Z,0
2017-05-30T01:38:19.134Z,0
2017-05-30T01:39:19.751Z,0
2017-05-30T01:40:20.365Z,0
2017-05-30T01:41:20.980Z,0
2017-05-30T01:42:21.594Z,0
2017-05-30T01:43:22.245Z,0
2017-05-30T01:44:22.857Z,0
2017-05-30T01:45:23.477Z,0
2017-05-30T01:46:24.139Z,0
2017-05-30T01:47:24.754Z,0
2017-05-30T01:48:25.370Z,0
2017-05-30T01:49:25.988Z,0
2017-05-30T01:50:26.605Z,0
2017-05-30T01:51:27.218Z,0
2017-05-30T01:52:27.864Z,0
2017-05-30T01:53:28.477Z,0
2017-05-30T01:54:29.098Z,0
2017-05-30T01:55:29.711Z,0
2017-05-30T01:56:30.376Z,0
2017-05-30T01:57:30.991Z,0
2017-05-30T01:58:31.612Z,0
2017-05-30T01:59:32.223Z,0
2017-05-30T02:00:32.838Z,0
2017-05-30T02:01:33.504Z,0
2017-05-30T02:02:34.119Z,0
2017-05-30T02:03:34.734Z,0
2017-05-30T02:04:35.348Z,0
2017-05-30T02:05:35.962Z,0
2017-05-30T02:06:36.575Z,0
2017-05-30T02:07:37.190Z,0
2017-05-30T02:08:37.806Z,0
2017-05-30T02:09:38.421Z,0
2017-05-30T02:10:39.071Z,0
2017-05-30T02:11:39.768Z,0
2017-05-30T02:12:40.382Z,0
2017-05-30T02:13:41.001Z,0
2017-05-30T02:14:41.654Z,0
2017-05-30T02:15:42.266Z,0
2017-05-30T02:16:42.882Z,0
2017-05-30T02:17:43.527Z,0
2017-05-30T02:18:44.175Z,0
2017-05-30T02:19:44.788Z,0
2017-05-30T02:20:45.408Z,0
2017-05-30T02:21:46.018Z,0
2017-05-30T02:22:46.633Z,0
2017-05-30T02:23:47.248Z,0
2017-05-30T02:24:47.864Z,0
2017-05-30T02:25:48.486Z,0
2017-05-30T02:26:49.095Z,0
2017-05-30T02:27:49.714Z,0
2017-05-30T02:28:50.325Z,0
2017-05-30T02:29:50.939Z,0
2017-05-30T02:30:51.559Z,0
2017-05-30T02:31:52.255Z,0
2017-05-30T02:32:52.870Z,0
2017-05-30T02:33:53.488Z,0
2017-05-30T02:34:54.101Z,0
2017-05-30T02:35:54.713Z,0
2017-05-30T02:36:55.328Z,0
2017-05-30T02:37:55.944Z,0
2017-05-30T02:38:56.556Z,0
2017-05-30T02:39:57.203Z,0
2017-05-30T02:40:57.815Z,0
2017-05-30T02:41:58.429Z,0
2017-05-30T02:42:59.041Z,0
2017-05-30T02:43:59.694Z,0
2017-05-30T02:45:00.310Z,0
2017-05-30T02:46:00.927Z,0
2017-05-30T02:47:01.590Z,0
2017-05-30T02:48:02.245Z,0
2017-05-30T02:49:02.866Z,0
2017-05-30T02:50:03.516Z,0
2017-05-30T02:51:04.160Z,0
2017-05-30T02:52:04.822Z,0
2017-05-30T02:53:05.437Z,0
2017-05-30T02:54:06.050Z,0
2017-05-30T02:55:06.669Z,0
2017-05-30T02:56:07.282Z,0
2017-05-30T02:57:07.949Z,0
2017-05-30T02:58:08.563Z,0
2017-05-30T02:59:09.178Z,0
2017-05-30T03:00:09.797Z,0
2017-05-30T03:01:10.408Z,0
2017-05-30T03:02:11.023Z,0
2017-05-30T03:03:11.647Z,0
2017-05-30T03:04:12.256Z,0
2017-05-30T03:05:12.869Z,0
2017-05-30T03:06:13.482Z,0
2017-05-30T03:07:14.103Z,0
2017-05-30T03:08:14.749Z,0
2017-05-30T03:09:15.363Z,0
2017-05-30T03:10:15.979Z,0
2017-05-30T03:11:16.622Z,0
2017-05-30T03:12:17.235Z,0
2017-05-30T03:13:17.855Z,0
2017-05-30T03:14:18.500Z,0
2017-05-30T03:15:19.113Z,0
2017-05-30T03:16:19.725Z,0
2017-05-30T03:17:20.341Z,0
2017-05-30T03:18:20.956Z,0
2017-05-30T03:19:21.570Z,0
2017-05-30T03:20:22.191Z,0
2017-05-30T03:21:22.802Z,0
2017-05-30T03:22:23.466Z,0
2017-05-30T03:23:24.078Z,0
2017-05-30T03:24:24.693Z,0
2017-05-30T03:25:25.309Z,0
2017-05-30T03:26:25.929Z,0
2017-05-30T03:27:26.590Z,0
2017-05-30T03:28:27.203Z,0
2017-05-30T03:29:27.821Z,0
2017-05-30T03:30:28.432Z,0
2017-05-30T03:31:29.049Z,0
2017-05-30T03:32:29.697Z,0
2017-05-30T03:33:30.317Z,0
2017-05-30T03:34:30.930Z,0
2017-05-30T03:35:31.548Z,0
2017-05-30T03:36:32.160Z,0
2017-05-30T03:37:32.779Z,0
2017-05-30T03:38:33.390Z,0
2017-05-30T03:39:34.003Z,0
2017-05-30T03:40:34.651Z,0
2017-05-30T03:41:35.264Z,0
2017-05-30T03:42:35.883Z,0
2017-05-30T03:43:36.496Z,0
2017-05-30T03:44:37.112Z,0
2017-05-30T03:45:37.726Z,0
2017-05-30T03:46:38.374Z,0
2017-05-30T03:47:39.072Z,0
2017-05-30T03:48:39.686Z,0
2017-05-30T03:49:40.301Z,0
2017-05-30T03:50:40.915Z,0
2017-05-30T03:51:41.529Z,0
2017-05-30T03:52:42.143Z,0
2017-05-30T03:53:42.757Z,0
2017-05-30T03:54:43.403Z,0
2017-05-30T03:55:44.017Z,0
2017-05-30T03:56:44.636Z,0
2017-05-30T03:57:45.335Z,0
2017-05-30T03:58:45.957Z,0
2017-05-30T03:59:46.568Z,0
2017-05-30T04:00:47.186Z,0
2017-05-30T04:01:47.801Z,0
2017-05-30T04:02:48.414Z,0
2017-05-30T04:03:49.037Z,0
2017-05-30T04:04:49.650Z,0
2017-05-30T04:05:50.267Z,0
2017-05-30T04:06:50.881Z,0
2017-05-30T04:07:51.496Z,0
2017-05-30T04:08:52.110Z,0
2017-05-30T04:09:52.731Z,0
2017-05-30T04:10:53.345Z,0
2017-05-30T04:11:53.961Z,0
2017-05-30T04:12:54.610Z,0
2017-05-30T04:13:55.226Z,0
2017-05-30T04:14:55.840Z,0
2017-05-30T04:15:56.487Z,0
2017-05-30T04:16:57.102Z,0
2017-05-30T04:17:57.718Z,0
2017-05-30T04:18:58.339Z,0
2017-05-30T04:19:58.949Z,0
2017-05-30T04:20:59.564Z,0
2017-05-30T04:22:00.212Z,0
2017-05-30T04:23:00.879Z,0
2017-05-30T04:24:01.493Z,0
2017-05-30T04:25:02.114Z,0
2017-05-30T04:26:02.727Z,0
2017-05-30T04:27:03.346Z,0
2017-05-30T04:28:04.013Z,0
2017-05-30T04:29:04.626Z,0
2017-05-30T04:30:05.241Z,0
2017-05-30T04:31:05.856Z,0
2017-05-30T04:32:06.470Z,0
2017-05-30T04:33:07.091Z,0
2017-05-30T04:34:07.712Z,0
2017-05-30T04:35:08.367Z,0
2017-05-30T04:36:09.023Z,0
2017-05-30T04:37:09.636Z,0
2017-05-30T04:38:10.285Z,0
2017-05-30T04:39:10.906Z,0
2017-05-30T04:40:11.516Z,0
2017-05-30T04:41:12.136Z,0
2017-05-30T04:42:12.747Z,0
2017-05-30T04:43:13.413Z,0
2017-05-30T04:44:14.033Z,0
2017-05-30T04:45:14.645Z,0
2017-05-30T04:46:15.261Z,0
2017-05-30T04:47:15.876Z,0
2017-05-30T04:48:16.539Z,0
2017-05-30T04:49:17.189Z,0
2017-05-30T04:50:17.805Z,0
2017-05-30T04:51:18.425Z,0
2017-05-30T04:52:19.037Z,0
2017-05-30T04:53:19.702Z,0
2017-05-30T04:54:20.323Z,0
2017-05-30T04:55:20.936Z,0
2017-05-30T04:56:21.551Z,0
2017-05-30T04:57:22.165Z,0
2017-05-30T04:58:22.786Z,0
2017-05-30T04:59:23.399Z,0
2017-05-30T05:00:24.014Z,0
2017-05-30T05:01:24.627Z,0
2017-05-30T05:02:25.245Z,0
2017-05-30T05:03:25.917Z,0
2017-05-30T05:04:26.529Z,0
2017-05-30T05:05:27.144Z,0
2017-05-30T05:06:27.759Z,0
2017-05-30T05:07:28.373Z,0
2017-05-30T05:08:28.996Z,0
2017-05-30T05:09:29.607Z,0
2017-05-30T05:10:30.223Z,0
2017-05-30T05:11:30.843Z,0
2017-05-30T05:12:31.461Z,0
2017-05-30T05:13:32.124Z,0
2017-05-30T05:14:32.739Z,0
2017-05-30T05:15:33.353Z,0
2017-05-30T05:16:34.000Z,0
2017-05-30T05:17:34.614Z,0
2017-05-30T05:18:35.229Z,0
2017-05-30T05:19:35.850Z,0
2017-05-30T05:20:36.468Z,5
2017-05-30T05:21:37.083Z,5
2017-05-30T05:22:37.702Z,5
2017-05-30T05:23:38.364Z,5
2017-05-30T05:24:38.979Z,5
2017-05-30T05:25:39.598Z,5
2017-05-30T05:26:40.252Z,5
2017-05-30T05:27:40.864Z,5
2017-05-30T05:28:41.530Z,5
2017-05-30T05:29:42.146Z,5
2017-05-30T05:30:42.793Z,5
2017-05-30T05:31:43.409Z,5
2017-05-30T05:32:44.026Z,5
2017-05-30T05:33:44.640Z,5
2017-05-30T05:34:45.253Z,5
2017-05-30T05:35:45.871Z,5
2017-05-30T05:36:46.488Z,5
2017-05-30T05:37:47.107Z,5
2017-05-30T05:38:47.753Z,5
2017-05-30T05:39:48.402Z,5
2017-05-30T05:40:49.023Z,5
2017-05-30T05:41:49.636Z,5
2017-05-30T05:42:50.249Z,5
2017-05-30T05:43:50.869Z,5
2017-05-30T05:44:51.485Z,5
2017-05-30T05:45:52.100Z,5
2017-05-30T05:46:52.721Z,5
2017-05-30T05:47:53.333Z,5
2017-05-30T05:48:53.999Z,5
2017-05-30T05:49:54.614Z,5
2017-05-30T05:50:55.237Z,5
2017-05-30T05:51:55.850Z,5
2017-05-30T05:52:56.464Z,5
2017-05-30T05:53:57.164Z,5
2017-05-30T05:54:57.780Z,5
2017-05-30T05:55:58.402Z,10
2017-05-30T05:56:59.021Z,10
2017-05-30T05:57:59.636Z,10
2017-05-30T05:59:00.257Z,10
2017-05-30T06:00:00.871Z,10
2017-05-30T06:01:01.487Z,10
2017-05-30T06:02:02.103Z,10
2017-05-30T06:03:02.720Z,10
2017-05-30T06:04:03.386Z,10
2017-05-30T06:05:04.007Z,10
2017-05-30T06:06:04.628Z,10
2017-05-30T06:07:05.242Z,10
2017-05-30T06:08:05.865Z,10
2017-05-30T06:09:06.529Z,10
2017-05-30T06:10:07.146Z,10
2017-05-30T06:11:07.795Z,10
2017-05-30T06:12:08.415Z,10
2017-05-30T06:13:09.032Z,10
2017-05-30T06:14:09.703Z,10
2017-05-30T06:15:10.318Z,10
2017-05-30T06:16:10.967Z,10
2017-05-30T06:17:11.590Z,10
2017-05-30T06:18:12.202Z,10
2017-05-30T06:19:12.868Z,10
2017-05-30T06:20:13.485Z,10
2017-05-30T06:21:14.102Z,10
2017-05-30T06:22:14.724Z,10
2017-05-30T06:23:15.339Z,10
2017-05-30T06:24:16.005Z,10
2017-05-30T06:25:16.624Z,10
2017-05-30T06:26:17.241Z,10
2017-05-30T06:27:17.858Z,10
2017-05-30T06:28:18.481Z,10
2017-05-30T06:29:19.097Z,10
2017-05-30T06:30:19.716Z,10
2017-05-30T06:31:20.367Z,10
2017-05-30T06:32:20.989Z,10
2017-05-30T06:33:21.609Z,10
2017-05-30T06:34:22.524Z,10
2017-05-30T06:35:23.162Z,10
2017-05-30T06:36:23.804Z,10
2017-05-30T06:37:24.421Z,10
2017-05-30T06:38:25.038Z,10
2017-05-30T06:39:25.655Z,10
2017-05-30T06:40:26.273Z,10
2017-05-30T06:41:26.893Z,10
2017-05-30T06:42:27.511Z,10
2017-05-30T06:43:28.129Z,10
2017-05-30T06:44:28.796Z,10
2017-05-30T06:45:29.419Z,10
2017-05-30T06:46:30.035Z,10
2017-05-30T06:47:30.652Z,10
2017-05-30T06:48:31.270Z,10
2017-05-30T06:49:31.942Z,10
2017-05-30T06:50:32.560Z,10
2017-05-30T06:51:33.183Z,10
2017-05-30T06:52:33.799Z,10
2017-05-30T06:53:34.448Z,10
2017-05-30T06:54:35.099Z,10
2017-05-30T06:55:35.717Z,10
2017-05-30T06:56:36.339Z,10
2017-05-30T06:57:36.960Z,10
2017-05-30T06:58:37.581Z,10
2017-05-30T06:59:38.252Z,10
2017-05-30T07:00:38.867Z,10
2017-05-30T07:01:39.489Z,10
2017-05-30T07:02:40.110Z,10
2017-05-30T07:03:40.731Z,10
2017-05-30T07:04:41.396Z,10
2017-05-30T07:05:42.015Z,10
2017-05-30T07:06:42.632Z,10
2017-05-30T07:07:43.251Z,10
2017-05-30T07:08:43.869Z,10
2017-05-30T07:09:44.541Z,10
2017-05-30T07:10:45.194Z,10
2017-05-30T07:11:45.812Z,10
2017-05-30T07:12:46.431Z,10
2017-05-30T07:13:47.049Z,10
2017-05-30T07:14:47.671Z,10
2017-05-30T07:15:48.287Z,10
2017-05-30T07:16:48.904Z,10
2017-05-30T07:17:49.523Z,10
2017-05-30T07:18:50.173Z,10
2017-05-30T07:19:50.824Z,10
2017-05-30T07:20:51.442Z,10
2017-05-30T07:21:52.092Z,15
2017-05-30T07:22:52.710Z,15
2017-05-30T07:23:53.329Z,15
2017-05-30T07:24:53.956Z,15
2017-05-30T07:25:54.570Z,15
2017-05-30T07:26:55.187Z,15
2017-05-30T07:27:55.805Z,15
2017-05-30T07:28:56.422Z,15
2017-05-30T07:29:57.089Z,15
2017-05-30T07:30:57.711Z,15
2017-05-30T07:31:58.328Z,15
2017-05-30T07:32:58.947Z,15
2017-05-30T07:33:59.564Z,15
2017-05-30T07:35:00.182Z,15
2017-05-30T07:36:00.801Z,15
2017-05-30T07:37:01.421Z,15
2017-05-30T07:38:02.037Z,15
2017-05-30T07:39:02.688Z,15
2017-05-30T07:40:03.357Z,15
2017-05-30T07:41:03.974Z,15
2017-05-30T07:42:04.594Z,20
2017-05-30T07:43:05.219Z,15
2017-05-30T07:44:05.833Z,15
2017-05-30T07:45:06.458Z,20
2017-05-30T07:46:07.078Z,20
2017-05-30T07:47:07.695Z,20
2017-05-30T07:48:08.313Z,20
2017-05-30T07:49:08.937Z,20
2017-05-30T07:50:09.589Z,20
2017-05-30T07:51:10.241Z,20
2017-05-30T07:52:10.860Z,20
2017-05-30T07:53:11.478Z,20
2017-05-30T07:54:12.096Z,20
2017-05-30T07:55:12.721Z,20
2017-05-30T07:56:13.337Z,20
2017-05-30T07:57:13.960Z,20
2017-05-30T07:58:14.581Z,20
2017-05-30T07:59:15.238Z,20
2017-05-30T08:00:15.911Z,20
2017-05-30T08:01:16.527Z,15
2017-05-30T08:02:17.153Z,20
2017-05-30T08:03:17.768Z,15
2017-05-30T08:04:18.388Z,20
2017-05-30T08:05:19.207Z,20
2017-05-30T08:06:19.829Z,20
2017-05-30T08:07:20.447Z,20
2017-05-30T08:08:21.066Z,20
2017-05-30T08:09:21.683Z,20
2017-05-30T08:10:22.352Z,20
2017-05-30T08:11:22.972Z,20
2017-05-30T08:12:23.595Z,20
2017-05-30T08:13:24.245Z,20
2017-05-30T08:14:24.865Z,20
2017-05-30T08:15:25.522Z,20
2017-05-30T08:16:26.135Z,20
2017-05-30T08:17:26.754Z,20
2017-05-30T08:18:27.377Z,15
2017-05-30T08:19:27.995Z,15
2017-05-30T08:20:28.913Z,20
2017-05-30T08:21:29.538Z,15
2017-05-30T08:22:30.159Z,20
2017-05-30T08:23:30.790Z,10
2017-05-30T08:24:31.395Z,10
2017-05-30T08:25:32.065Z,15
2017-05-30T08:26:32.683Z,10
2017-05-30T08:27:33.304Z,10
2017-05-30T08:28:33.924Z,10
2017-05-30T08:29:34.543Z,10
2017-05-30T08:30:35.214Z,20
2017-05-30T08:31:35.832Z,20
2017-05-30T08:32:36.453Z,20
2017-05-30T08:33:37.078Z,20
2017-05-30T08:34:37.695Z,10
2017-05-30T08:35:38.313Z,20
2017-05-30T08:36:38.932Z,20
2017-05-30T08:37:39.553Z,20
2017-05-30T08:38:40.171Z,20
2017-05-30T08:39:40.790Z,20
2017-05-30T08:40:41.410Z,20
2017-05-30T08:41:42.029Z,20
2017-05-30T08:42:42.679Z,15
2017-05-30T08:43:43.298Z,15
2017-05-30T08:44:43.918Z,15
2017-05-30T08:45:44.589Z,10
2017-05-30T08:46:45.215Z,20
2017-05-30T08:47:45.836Z,20
2017-05-30T08:48:46.455Z,25
2017-05-30T08:49:47.075Z,25
2017-05-30T08:50:47.777Z,25
2017-05-30T08:51:48.398Z,20
2017-05-30T08:52:49.019Z,20
2017-05-30T08:53:49.636Z,20
2017-05-30T08:54:50.258Z,20
2017-05-30T08:55:50.876Z,25
2017-05-30T08:56:51.495Z,25
2017-05-30T08:57:52.114Z,20
2017-05-30T08:58:52.770Z,20
2017-05-30T08:59:53.393Z,25
2017-05-30T09:00:54.312Z,25
2017-05-30T09:01:54.931Z,20
2017-05-30T09:02:55.550Z,20
2017-05-30T09:03:56.171Z,20
2017-05-30T09:04:56.790Z,20
2017-05-30T09:05:57.459Z,25
2017-05-30T09:06:58.079Z,25
2017-05-30T09:07:58.699Z,25
2017-05-30T09:08:59.325Z,25
2017-05-30T09:09:59.942Z,25
2017-05-30T09:11:00.621Z,25
2017-05-30T09:12:01.237Z,25
2017-05-30T09:13:01.857Z,25
2017-05-30T09:14:02.476Z,25
2017-05-30T09:15:03.098Z,25
2017-05-30T09:16:03.918Z,25
2017-05-30T09:17:04.577Z,25
2017-05-30T09:18:05.195Z,25
2017-05-30T09:19:05.815Z,25
2017-05-30T09:20:06.441Z,25
2017-05-30T09:21:07.062Z,25
2017-05-30T09:22:07.682Z,25
2017-05-30T09:23:08.301Z,25
2017-05-30T09:24:08.927Z,25
2017-05-30T09:25:09.546Z,30
2017-05-30T09:26:10.217Z,30
2017-05-30T09:27:10.840Z,30
2017-05-30T09:28:11.458Z,30
2017-05-30T09:29:12.078Z,30
2017-05-30T09:30:12.697Z,30
2017-05-30T09:31:13.322Z,30
2017-05-30T09:32:13.947Z,30
2017-05-30T09:33:14.564Z,35
2017-05-30T09:34:15.186Z,35
2017-05-30T09:35:15.811Z,35
2017-05-30T09:36:16.434Z,35
2017-05-30T09:37:17.053Z,35
2017-05-30T09:38:17.674Z,35
2017-05-30T09:39:18.294Z,35
2017-05-30T09:40:18.917Z,35
2017-05-30T09:41:19.588Z,35
2017-05-30T09:42:20.212Z,35
2017-05-30T09:43:20.871Z,35
2017-05-30T09:44:21.489Z,35
2017-05-30T09:45:22.142Z,35
2017-05-30T09:46:22.763Z,40
2017-05-30T09:47:23.383Z,35
2017-05-30T09:48:24.011Z,45
2017-05-30T09:49:24.630Z,30
2017-05-30T09:50:25.250Z,25
2017-05-30T09:51:25.925Z,35
2017-05-30T09:52:26.545Z,25
2017-05-30T09:53:27.165Z,35
2017-05-30T09:54:27.792Z,25
2017-05-30T09:55:28.409Z,30
2017-05-30T09:56:29.030Z,35
2017-05-30T09:57:29.652Z,35
2017-05-30T09:58:30.274Z,40
2017-05-30T09:59:30.894Z,35
2017-05-30T10:00:31.515Z,40
2017-05-30T10:01:32.136Z,30
2017-05-30T10:02:32.756Z,30
2017-05-30T10:03:33.378Z,35
2017-05-30T10:04:34.004Z,50
2017-05-30T10:05:34.624Z,30
2017-05-30T10:06:35.294Z,30
2017-05-30T10:07:35.914Z,50
2017-05-30T10:08:36.568Z,35
2017-05-30T10:09:37.190Z,40
2017-05-30T10:10:37.811Z,25
2017-05-30T10:11:38.484Z,20
2017-05-30T10:12:39.110Z,20
2017-05-30T10:13:39.731Z,20
2017-05-30T10:14:40.388Z,20
2017-05-30T10:15:41.007Z,20
2017-05-30T10:16:41.678Z,20
2017-05-30T10:17:42.331Z,20
2017-05-30T10:18:42.957Z,20
2017-05-30T10:19:43.575Z,20
2017-05-30T10:20:44.205Z,20
2017-05-30T10:21:44.822Z,25
2017-05-30T10:22:45.449Z,30
2017-05-30T10:23:46.065Z,25
2017-05-30T10:24:46.686Z,25
2017-05-30T10:25:47.308Z,25
2017-05-30T10:26:47.978Z,25
2017-05-30T10:27:48.598Z,25
2017-05-30T10:28:49.219Z,25
2017-05-30T10:29:49.840Z,35
2017-05-30T10:30:50.463Z,25
2017-05-30T10:31:51.083Z,25
2017-05-30T10:32:51.704Z,30
2017-05-30T10:33:52.356Z,30
2017-05-30T10:34:52.976Z,30
2017-05-30T10:35:53.597Z,35
2017-05-30T10:36:54.218Z,30
2017-05-30T10:37:54.840Z,30
2017-05-30T10:38:55.461Z,30
2017-05-30T10:39:56.088Z,30
2017-05-30T10:40:56.707Z,30
2017-05-30T10:41:57.628Z,35
2017-05-30T10:42:58.256Z,30
2017-05-30T10:43:58.875Z,30
2017-05-30T10:44:59.495Z,35
2017-05-30T10:46:00.115Z,40
2017-05-30T10:47:00.793Z,40
2017-05-30T10:48:01.410Z,45
2017-05-30T10:49:02.031Z,40
2017-05-30T10:50:02.657Z,45
2017-05-30T10:51:03.275Z,45
2017-05-30T10:52:03.948Z,60
2017-05-30T10:53:04.570Z,45
2017-05-30T10:54:05.192Z,60
2017-05-30T10:55:05.814Z,35
2017-05-30T10:56:06.465Z,60
2017-05-30T10:57:07.338Z,35
2017-05-30T10:58:07.967Z,35
2017-05-30T10:59:08.593Z,30
2017-05-30T11:00:09.218Z,40
2017-05-30T11:01:09.835Z,35
2017-05-30T11:02:10.463Z,35
2017-05-30T11:03:11.081Z,40
2017-05-30T11:04:11.709Z,65
2017-05-30T11:05:12.334Z,65
2017-05-30T11:06:12.955Z,60
2017-05-30T11:07:13.778Z,70
2017-05-30T11:08:14.404Z,60
2017-05-30T11:09:15.030Z,60
2017-05-30T11:10:15.648Z,45
2017-05-30T11:11:16.274Z,30
2017-05-30T11:12:16.946Z,30
2017-05-30T11:13:17.573Z,30
2017-05-30T11:14:18.192Z,30
2017-05-30T11:15:18.813Z,30
2017-05-30T11:16:19.438Z,25
2017-05-30T11:17:20.116Z,30
2017-05-30T11:18:20.735Z,30
2017-05-30T11:19:21.356Z,30
2017-05-30T11:20:21.985Z,65
2017-05-30T11:21:22.606Z,30
2017-05-30T11:22:23.227Z,45
2017-05-30T11:23:23.849Z,55
2017-05-30T11:24:24.473Z,60
2017-05-30T11:25:25.093Z,60
2017-05-30T11:26:25.715Z,50
2017-05-30T11:27:26.387Z,30
2017-05-30T11:28:27.008Z,30
2017-05-30T11:29:27.631Z,30
2017-05-30T11:30:28.262Z,55
2017-05-30T11:31:28.887Z,25
2017-05-30T11:32:29.506Z,25
2017-05-30T11:33:30.127Z,25
2017-05-30T11:34:30.754Z,25
2017-05-30T11:35:31.380Z,25
2017-05-30T11:36:32.004Z,25
2017-05-30T11:37:32.674Z,25
2017-05-30T11:38:33.297Z,25
2017-05-30T11:39:33.919Z,25
2017-05-30T11:40:34.548Z,25
2017-05-30T11:41:35.208Z,25
2017-05-30T11:42:35.877Z,25
2017-05-30T11:43:36.500Z,25
2017-05-30T11:44:37.161Z,25
2017-05-30T11:45:37.780Z,20
2017-05-30T11:46:38.401Z,20
2017-05-30T11:47:39.022Z,25
2017-05-30T11:48:39.644Z,25
2017-05-30T11:49:40.265Z,25
2017-05-30T11:50:40.889Z,25
2017-05-30T11:51:41.510Z,30
2017-05-30T11:52:42.181Z,30
2017-05-30T11:53:42.834Z,35
2017-05-30T11:54:43.455Z,35
2017-05-30T11:55:44.076Z,30
2017-05-30T11:56:44.699Z,30
2017-05-30T11:57:45.329Z,30
2017-05-30T11:58:45.982Z,30
2017-05-30T11:59:46.604Z,25
2017-05-30T12:00:47.226Z,25
2017-05-30T12:01:47.846Z,25
2017-05-30T12:02:48.469Z,25
2017-05-30T12:03:49.091Z,25
2017-05-30T12:04:49.748Z,25
2017-05-30T12:05:50.369Z,20
2017-05-30T12:06:50.991Z,20
2017-05-30T12:07:51.612Z,20
2017-05-30T12:08:52.233Z,20
2017-05-30T12:09:52.861Z,20
2017-05-30T12:10:53.479Z,20
2017-05-30T12:11:54.100Z,20
2017-05-30T12:12:54.754Z,20
2017-05-30T12:13:55.377Z,20
2017-05-30T12:14:56.005Z,20
2017-05-30T12:15:56.626Z,20
2017-05-30T12:16:57.248Z,20
2017-05-30T12:17:57.921Z,20
2017-05-30T12:18:58.543Z,20
2017-05-30T12:19:59.169Z,20
2017-05-30T12:20:59.789Z,25
2017-05-30T12:22:00.416Z,25
2017-05-30T12:23:01.036Z,45
2017-05-30T12:24:01.768Z,70
2017-05-30T12:25:02.425Z,60
2017-05-30T12:26:03.048Z,45
2017-05-30T12:27:03.677Z,40
2017-05-30T12:28:04.372Z,70
2017-05-30T12:29:05.001Z,35
2017-05-30T12:30:05.618Z,25
2017-05-30T12:31:06.240Z,25
2017-05-30T12:32:06.862Z,25
2017-05-30T12:33:07.488Z,25
2017-05-30T12:34:08.112Z,25
2017-05-30T12:35:08.731Z,25
2017-05-30T12:36:09.359Z,30
2017-05-30T12:37:09.977Z,40
2017-05-30T12:38:10.601Z,65
2017-05-30T12:39:11.229Z,30
2017-05-30T12:40:11.854Z,50
2017-05-30T12:41:12.473Z,25
2017-05-30T12:42:13.096Z,25
2017-05-30T12:43:13.767Z,35
2017-05-30T12:44:14.390Z,25
2017-05-30T12:45:15.011Z,70
2017-05-30T12:46:15.641Z,25
2017-05-30T12:47:16.260Z,20
2017-05-30T12:48:16.882Z,20
2017-05-30T12:49:17.507Z,20
2017-05-30T12:50:18.130Z,20
2017-05-30T12:51:18.753Z,25
2017-05-30T12:52:19.375Z,25
2017-05-30T12:53:20.053Z,20
2017-05-30T12:54:20.678Z,20
2017-05-30T12:55:21.298Z,20
2017-05-30T12:56:21.920Z,20
2017-05-30T12:57:22.541Z,20
2017-05-30T12:58:23.215Z,25
2017-05-30T12:59:23.839Z,20
2017-05-30T13:00:24.460Z,20
2017-05-30T13:01:25.088Z,25
2017-05-30T13:02:25.708Z,40
2017-05-30T13:03:26.380Z,25
2017-05-30T13:04:27.040Z,25
2017-05-30T13:05:27.659Z,30
2017-05-30T13:06:28.281Z,30
2017-05-30T13:07:28.904Z,35
2017-05-30T13:08:29.528Z,45
2017-05-30T13:09:30.150Z,40
2017-05-30T13:10:30.805Z,30
2017-05-30T13:11:31.428Z,30
2017-05-30T13:12:32.048Z,55
2017-05-30T13:13:32.669Z,30
2017-05-30T13:14:33.291Z,50
2017-05-30T13:15:33.916Z,45
2017-05-30T13:16:34.538Z,45
2017-05-30T13:17:35.191Z,40
2017-05-30T13:18:35.868Z,40
2017-05-30T13:19:36.494Z,30
2017-05-30T13:20:37.120Z,25
2017-05-30T13:21:37.738Z,25
2017-05-30T13:22:38.361Z,25
2017-05-30T13:23:38.983Z,25
2017-05-30T13:24:39.605Z,25
2017-05-30T13:25:40.227Z,20
2017-05-30T13:26:40.850Z,20
2017-05-30T13:27:41.472Z,20
2017-05-30T13:28:42.149Z,20
2017-05-30T13:29:42.770Z,25
2017-05-30T13:30:43.434Z,25
2017-05-30T13:31:44.051Z,25
2017-05-30T13:32:44.709Z,25
2017-05-30T13:33:45.419Z,25
2017-05-30T13:34:46.043Z,25
2017-05-30T13:35:46.667Z,25
2017-05-30T13:36:47.324Z,25
2017-05-30T13:37:47.947Z,25
2017-05-30T13:38:48.619Z,25
2017-05-30T13:39:49.289Z,25
2017-05-30T13:40:49.913Z,25
2017-05-30T13:41:50.540Z,30
2017-05-30T13:42:51.160Z,30
2017-05-30T13:43:51.783Z,40
2017-05-30T13:44:52.405Z,55
2017-05-30T13:45:53.062Z,65
2017-05-30T13:46:53.685Z,55
2017-05-30T13:47:54.311Z,65
2017-05-30T13:48:54.934Z,75
2017-05-30T13:49:55.560Z,75
2017-05-30T13:50:56.183Z,60
2017-05-30T13:51:56.838Z,75
2017-05-30T13:52:57.462Z,55
2017-05-30T13:53:58.141Z,35
2017-05-30T13:54:58.769Z,70
2017-05-30T13:55:59.389Z,75
2017-05-30T13:57:00.016Z,70
2017-05-30T13:58:00.639Z,70
2017-05-30T13:59:01.262Z,50
2017-05-30T14:00:01.891Z,50
2017-05-30T14:01:02.510Z,55
2017-05-30T14:02:03.137Z,30
2017-05-30T14:03:03.767Z,20
2017-05-30T14:04:04.444Z,20
2017-05-30T14:05:05.068Z,45
2017-05-30T14:06:05.694Z,30
2017-05-30T14:07:06.323Z,60
2017-05-30T14:08:06.949Z,20
2017-05-30T14:09:07.598Z,20
2017-05-30T14:10:08.227Z,20
2017-05-30T14:11:08.848Z,20
2017-05-30T14:12:09.474Z,20
2017-05-30T14:13:10.102Z,20
2017-05-30T14:14:10.773Z,20
2017-05-30T14:15:11.397Z,20
2017-05-30T14:16:12.028Z,15
2017-05-30T14:17:12.649Z,15
2017-05-30T14:18:13.302Z,15
2017-05-30T14:19:13.976Z,15
2017-05-30T14:20:14.598Z,15
2017-05-30T14:21:15.223Z,15
2017-05-30T14:22:15.847Z,15
2017-05-30T14:23:16.503Z,20
2017-05-30T14:24:17.210Z,20
2017-05-30T14:25:17.833Z,20
2017-05-30T14:26:18.455Z,20
2017-05-30T14:27:19.077Z,20
2017-05-30T14:28:19.703Z,20
2017-05-30T14:29:20.576Z,20
2017-05-30T14:30:21.199Z,20
2017-05-30T14:31:21.853Z,20
2017-05-30T14:32:22.485Z,20
2017-05-30T14:33:23.100Z,20
2017-05-30T14:34:23.927Z,20
2017-05-30T14:35:24.546Z,20
2017-05-30T14:36:25.176Z,20
2017-05-30T14:37:25.802Z,20